createdAt,value
2023-01-27T00:00:06.288Z,44.33
2023-01-27T00:00:39.190Z,44.60
2023-01-27T00:01:14.824Z,44.33
2023-01-27T00:01:46.481Z,43.50
2023-01-27T00:02:20.562Z,45.73
2023-01-27T00:02:52.814Z,45.20
2023-01-27T00:03:25.374Z,45.10
2023-01-27T00:03:57.162Z,45.57
2023-01-27T00:04:28.889Z,45.23
2023-01-27T00:05:01.955Z,45.13
2023-01-27T00:05:39.022Z,46.27
2023-01-27T00:06:12.203Z,45.43
2023-01-27T00:06:43.857Z,44.13
2023-01-27T00:07:15.570Z,43.83
2023-01-27T00:07:48.052Z,45.57
2023-01-27T00:08:19.776Z,46.23
2023-01-27T00:08:51.452Z,46.03
2023-01-27T00:09:23.116Z,45.40
2023-01-27T00:09:54.746Z,45.37
2023-01-27T00:10:27.503Z,45.03
2023-01-27T00:11:19.424Z,47.20
2023-01-27T00:12:11.752Z,46.77
2023-01-27T00:13:03.786Z,47.30
2023-01-27T00:13:36.702Z,46.83
2023-01-27T00:14:11.224Z,45.27
2023-01-27T00:14:42.887Z,43.60
2023-01-27T00:15:16.046Z,44.57
2023-01-27T00:15:47.829Z,44.93
2023-01-27T00:16:21.699Z,43.37
2023-01-27T00:16:53.512Z,43.80
2023-01-27T00:17:25.136Z,44.33
2023-01-27T00:17:56.810Z,44.20
2023-01-27T00:18:28.480Z,43.87
2023-01-27T00:19:00.098Z,43.30
2023-01-27T00:19:31.754Z,43.87
2023-01-27T00:20:05.127Z,44.33
2023-01-27T00:20:55.458Z,44.57
2023-01-27T00:21:45.945Z,43.50
2023-01-27T00:22:38.450Z,43.13
2023-01-27T00:23:37.902Z,43.20
2023-01-27T00:24:31.763Z,43.47
2023-01-27T00:25:03.565Z,43.23
2023-01-27T00:25:35.172Z,43.57
2023-01-27T00:26:09.795Z,42.53
2023-01-27T00:26:41.551Z,41.77
2023-01-27T00:27:20.658Z,42.43
2023-01-27T00:27:52.274Z,42.20
2023-01-27T00:28:25.556Z,41.00
2023-01-27T00:28:57.240Z,40.37
2023-01-27T00:29:28.915Z,43.07
2023-01-27T00:30:00.576Z,42.70
2023-01-27T00:30:34.505Z,42.33
2023-01-27T00:31:26.651Z,41.73
2023-01-27T00:32:16.865Z,41.70
2023-01-27T00:33:07.214Z,40.70
2023-01-27T00:33:38.849Z,41.00
2023-01-27T00:34:12.582Z,41.03
2023-01-27T00:34:44.273Z,41.30
2023-01-27T00:35:16.706Z,41.63
2023-01-27T00:35:48.352Z,41.37
2023-01-27T00:36:20.000Z,42.50
2023-01-27T00:36:54.478Z,41.73
2023-01-27T00:37:26.151Z,42.40
2023-01-27T00:37:57.827Z,41.37
2023-01-27T00:38:31.870Z,39.93
2023-01-27T00:39:04.284Z,41.87
2023-01-27T00:39:35.951Z,41.30
2023-01-27T00:40:08.023Z,41.50
2023-01-27T00:40:39.669Z,41.77
2023-01-27T00:41:20.122Z,42.47
2023-01-27T00:41:51.787Z,41.77
2023-01-27T00:42:23.448Z,43.20
2023-01-27T00:42:55.118Z,43.90
2023-01-27T00:43:26.767Z,43.87
2023-01-27T00:43:58.460Z,44.13
2023-01-27T00:44:30.124Z,44.83
2023-01-27T00:45:20.254Z,43.37
2023-01-27T00:45:52.672Z,42.53
2023-01-27T00:46:25.455Z,43.53
2023-01-27T00:47:01.120Z,43.90
2023-01-27T00:47:33.626Z,43.90
2023-01-27T00:48:05.776Z,42.77
2023-01-27T00:48:37.481Z,43.37
2023-01-27T00:49:10.598Z,43.50
2023-01-27T00:49:42.230Z,43.17
2023-01-27T00:50:14.181Z,43.57
2023-01-27T00:50:46.046Z,43.63
2023-01-27T00:51:18.442Z,44.60
2023-01-27T00:51:52.949Z,43.90
2023-01-27T00:52:24.689Z,44.27
2023-01-27T00:53:01.065Z,43.77
2023-01-27T00:53:34.450Z,43.80
2023-01-27T00:54:06.214Z,44.00
2023-01-27T00:54:37.848Z,44.43
2023-01-27T00:55:15.433Z,45.63
2023-01-27T00:55:47.573Z,44.43
2023-01-27T00:56:19.340Z,43.30
2023-01-27T00:56:51.755Z,45.83
2023-01-27T00:57:23.392Z,46.33
2023-01-27T00:57:55.082Z,45.13
2023-01-27T00:58:27.956Z,45.53
2023-01-27T00:59:00.098Z,44.67
2023-01-27T00:59:31.811Z,45.00
2023-01-27T01:00:07.524Z,44.40
2023-01-27T01:00:39.404Z,44.90
2023-01-27T01:01:13.913Z,44.03
2023-01-27T01:01:47.914Z,44.70
2023-01-27T01:02:19.672Z,45.30
2023-01-27T01:02:54.211Z,45.40
2023-01-27T01:03:31.181Z,45.43
2023-01-27T01:04:02.899Z,45.33
2023-01-27T01:04:34.597Z,44.53
2023-01-27T01:05:06.413Z,45.27
2023-01-27T01:05:38.039Z,44.70
2023-01-27T01:06:13.024Z,45.50
2023-01-27T01:06:44.693Z,45.53
2023-01-27T01:07:26.108Z,46.17
2023-01-27T01:07:57.775Z,45.13
2023-01-27T01:08:34.279Z,45.50
2023-01-27T01:09:05.919Z,45.43
2023-01-27T01:09:37.657Z,45.20
2023-01-27T01:10:10.238Z,45.80
2023-01-27T01:10:42.375Z,46.93
2023-01-27T01:11:16.703Z,46.90
2023-01-27T01:11:48.377Z,46.97
2023-01-27T01:12:20.006Z,45.87
2023-01-27T01:12:51.697Z,45.37
2023-01-27T01:13:23.367Z,44.93
2023-01-27T01:13:56.711Z,45.67
2023-01-27T01:14:28.538Z,44.93
2023-01-27T01:15:00.158Z,44.47
2023-01-27T01:15:38.379Z,46.03
2023-01-27T01:16:30.107Z,44.67
2023-01-27T01:17:01.799Z,47.13
2023-01-27T01:17:33.442Z,46.10
2023-01-27T01:18:06.120Z,46.90
2023-01-27T01:18:41.079Z,46.60
2023-01-27T01:19:14.893Z,46.07
2023-01-27T01:19:46.609Z,46.23
2023-01-27T01:20:18.335Z,47.17
2023-01-27T01:20:52.616Z,46.87
2023-01-27T01:21:24.259Z,45.77
2023-01-27T01:21:55.951Z,47.83
2023-01-27T01:22:27.603Z,47.87
2023-01-27T01:22:59.246Z,46.27
2023-01-27T01:23:33.361Z,47.47
2023-01-27T01:24:06.066Z,47.03
2023-01-27T01:24:37.799Z,46.73
2023-01-27T01:25:11.868Z,47.07
2023-01-27T01:25:43.671Z,47.83
2023-01-27T01:26:17.201Z,49.50
2023-01-27T01:26:49.026Z,47.20
2023-01-27T01:27:20.787Z,45.97
2023-01-27T01:27:54.767Z,45.30
2023-01-27T01:28:26.638Z,44.90
2023-01-27T01:28:58.370Z,44.93
2023-01-27T01:29:37.616Z,44.73
2023-01-27T01:30:10.144Z,46.00
2023-01-27T01:30:42.032Z,47.53
2023-01-27T01:31:17.191Z,49.03
2023-01-27T01:31:54.118Z,48.50
2023-01-27T01:32:27.794Z,47.03
2023-01-27T01:32:59.461Z,47.27
2023-01-27T01:33:31.121Z,46.27
2023-01-27T01:34:02.771Z,45.77
2023-01-27T01:34:34.451Z,46.63
2023-01-27T01:35:06.454Z,47.13
2023-01-27T01:35:42.855Z,46.03
2023-01-27T01:36:18.503Z,46.53
2023-01-27T01:36:50.173Z,47.23
2023-01-27T01:37:21.863Z,46.63
2023-01-27T01:37:54.608Z,47.50
2023-01-27T01:38:26.254Z,47.53
2023-01-27T01:38:58.329Z,45.83
2023-01-27T01:40:17.419Z,46.63
2023-01-27T01:40:49.049Z,46.40
2023-01-27T01:41:22.925Z,45.77
2023-01-27T01:41:54.555Z,46.27
2023-01-27T01:42:26.264Z,47.97
2023-01-27T01:43:00.994Z,48.77
2023-01-27T01:43:35.247Z,48.13
2023-01-27T01:44:28.278Z,46.43
2023-01-27T01:45:34.093Z,47.93
2023-01-27T01:46:10.326Z,47.00
2023-01-27T01:46:42.203Z,46.70
2023-01-27T01:47:17.730Z,46.57
2023-01-27T01:47:49.399Z,47.27
2023-01-27T01:48:58.541Z,48.27
2023-01-27T01:49:36.960Z,46.60
2023-01-27T01:50:11.356Z,47.37
2023-01-27T01:50:52.357Z,46.10
2023-01-27T01:51:29.323Z,46.37
2023-01-27T01:52:09.387Z,45.77
2023-01-27T01:52:41.031Z,45.80
2023-01-27T01:53:15.899Z,45.03
2023-01-27T01:53:58.322Z,45.93
2023-01-27T01:54:40.668Z,45.73
2023-01-27T01:55:13.091Z,46.87
2023-01-27T01:55:50.124Z,48.53
2023-01-27T01:56:38.831Z,48.23
2023-01-27T01:57:29.674Z,48.10
2023-01-27T01:58:02.590Z,48.83
2023-01-27T01:58:35.746Z,47.07
2023-01-27T01:59:17.423Z,47.87
2023-01-27T01:59:56.540Z,47.40
2023-01-27T02:00:28.222Z,47.77
2023-01-27T02:00:59.983Z,47.83
2023-01-27T02:01:33.736Z,46.97
2023-01-27T02:02:12.065Z,48.13
2023-01-27T02:02:44.993Z,47.07
2023-01-27T02:03:16.922Z,46.20
2023-01-27T02:03:56.370Z,48.53
2023-01-27T02:04:36.823Z,47.13
2023-01-27T02:05:21.510Z,45.63
2023-01-27T02:05:54.622Z,46.63
2023-01-27T02:06:26.622Z,46.83
2023-01-27T02:07:30.501Z,46.00
2023-01-27T02:08:08.260Z,47.67
2023-01-27T02:08:44.792Z,45.93
2023-01-27T02:09:18.330Z,46.53
2023-01-27T02:09:50.006Z,46.63
2023-01-27T02:10:26.045Z,46.77
2023-01-27T02:10:58.457Z,46.50
2023-01-27T02:11:30.256Z,47.47
2023-01-27T02:12:05.005Z,46.10
2023-01-27T02:12:43.760Z,44.70
2023-01-27T02:13:15.426Z,45.83
2023-01-27T02:13:47.640Z,44.97
2023-01-27T02:14:19.435Z,46.10
2023-01-27T02:14:51.096Z,46.53
2023-01-27T02:15:22.900Z,47.13
2023-01-27T02:15:55.845Z,46.63
2023-01-27T02:16:27.705Z,45.63
2023-01-27T02:16:59.650Z,44.67
2023-01-27T02:17:31.346Z,44.07
2023-01-27T02:18:06.545Z,44.63
2023-01-27T02:18:41.416Z,45.13
2023-01-27T02:19:25.024Z,45.17
2023-01-27T02:20:17.079Z,45.30
2023-01-27T02:20:56.282Z,46.53
2023-01-27T02:21:30.121Z,44.77
2023-01-27T02:22:06.326Z,44.90
2023-01-27T02:22:47.111Z,44.20
2023-01-27T02:23:35.999Z,44.33
2023-01-27T02:24:12.463Z,45.53
2023-01-27T02:24:50.356Z,44.70
2023-01-27T02:25:34.222Z,47.17
2023-01-27T02:26:05.814Z,45.97
2023-01-27T02:26:42.595Z,46.30
2023-01-27T02:27:14.392Z,45.20
2023-01-27T02:27:48.062Z,45.40
2023-01-27T02:28:19.782Z,45.67
2023-01-27T02:29:00.397Z,46.27
2023-01-27T02:29:32.049Z,44.63
2023-01-27T02:30:03.904Z,44.23
2023-01-27T02:30:37.771Z,45.30
2023-01-27T02:31:18.709Z,45.43
2023-01-27T02:31:50.437Z,45.80
2023-01-27T02:32:27.044Z,47.43
2023-01-27T02:32:58.793Z,46.43
2023-01-27T02:33:30.639Z,46.03
2023-01-27T02:34:07.716Z,46.60
2023-01-27T02:34:39.387Z,45.60
2023-01-27T02:35:17.380Z,46.00
2023-01-27T02:35:59.276Z,45.73
2023-01-27T02:36:37.387Z,45.77
2023-01-27T02:37:10.849Z,45.90
2023-01-27T02:37:43.213Z,46.13
2023-01-27T02:38:21.402Z,44.80
2023-01-27T02:38:56.856Z,46.13
2023-01-27T02:39:43.466Z,46.00
2023-01-27T02:40:16.858Z,45.50
2023-01-27T02:40:53.925Z,44.57
2023-01-27T02:41:43.955Z,45.13
2023-01-27T02:42:20.225Z,45.40
2023-01-27T02:42:59.422Z,46.37
2023-01-27T02:43:32.618Z,46.27
2023-01-27T02:44:04.435Z,45.67
2023-01-27T02:44:36.567Z,45.73
2023-01-27T02:45:08.701Z,45.67
2023-01-27T02:45:40.515Z,46.20
2023-01-27T02:46:14.526Z,45.00
2023-01-27T02:46:46.900Z,43.23
2023-01-27T02:47:18.540Z,45.00
2023-01-27T02:47:50.214Z,46.43
2023-01-27T02:48:21.918Z,46.83
2023-01-27T02:49:01.157Z,46.70
2023-01-27T02:49:35.443Z,45.17
2023-01-27T02:50:07.486Z,46.80
2023-01-27T02:50:39.138Z,48.27
2023-01-27T02:51:11.261Z,48.13
2023-01-27T02:51:42.990Z,48.40
2023-01-27T02:52:15.886Z,48.83
2023-01-27T02:52:56.106Z,49.17
2023-01-27T02:53:27.843Z,49.03
2023-01-27T02:53:59.518Z,48.53
2023-01-27T02:54:31.379Z,48.60
2023-01-27T02:55:03.094Z,49.30
2023-01-27T02:55:34.821Z,48.73
2023-01-27T02:56:06.854Z,49.37
2023-01-27T02:56:39.671Z,48.63
2023-01-27T02:57:11.441Z,49.17
2023-01-27T02:57:43.078Z,48.33
2023-01-27T02:58:16.417Z,48.40
2023-01-27T02:58:48.066Z,48.87
2023-01-27T02:59:19.887Z,48.47
2023-01-27T02:59:51.538Z,45.77
2023-01-27T03:00:23.313Z,46.63
2023-01-27T03:00:54.972Z,47.17
2023-01-27T03:01:26.826Z,47.50
2023-01-27T03:01:58.566Z,47.10
2023-01-27T03:02:33.145Z,46.43
2023-01-27T03:03:04.790Z,46.50
2023-01-27T03:03:36.454Z,46.00
2023-01-27T03:04:09.250Z,44.20
2023-01-27T03:04:40.988Z,45.70
2023-01-27T03:05:13.500Z,46.00
2023-01-27T03:05:46.277Z,46.40
2023-01-27T03:06:19.319Z,45.67
2023-01-27T03:06:50.968Z,45.43
2023-01-27T03:07:25.335Z,46.17
2023-01-27T03:07:57.015Z,46.17
2023-01-27T03:08:28.654Z,44.57
2023-01-27T03:09:00.268Z,46.80
2023-01-27T03:09:31.905Z,46.40
2023-01-27T03:10:04.035Z,45.27
2023-01-27T03:10:38.565Z,47.10
2023-01-27T03:11:11.400Z,45.20
2023-01-27T03:12:01.706Z,44.00
2023-01-27T03:12:33.339Z,44.53
2023-01-27T03:13:05.579Z,45.37
2023-01-27T03:13:37.679Z,44.57
2023-01-27T03:14:09.807Z,44.80
2023-01-27T03:15:00.044Z,43.73
2023-01-27T03:15:50.543Z,45.53
2023-01-27T03:16:40.423Z,44.17
2023-01-27T03:17:33.701Z,45.23
2023-01-27T03:18:09.736Z,43.63
2023-01-27T03:18:41.397Z,43.20
2023-01-27T03:19:13.082Z,43.60
2023-01-27T03:19:45.916Z,43.57
2023-01-27T03:20:18.155Z,44.60
2023-01-27T03:20:49.955Z,46.50
2023-01-27T03:21:21.699Z,45.87
2023-01-27T03:21:54.411Z,44.23
2023-01-27T03:22:26.380Z,43.60
2023-01-27T03:22:58.083Z,44.27
2023-01-27T03:23:31.691Z,45.17
2023-01-27T03:24:03.679Z,45.10
2023-01-27T03:24:36.534Z,46.40
2023-01-27T03:25:09.546Z,45.77
2023-01-27T03:25:46.304Z,46.43
2023-01-27T03:26:17.919Z,45.20
2023-01-27T03:26:49.595Z,44.23
2023-01-27T03:27:21.708Z,45.03
2023-01-27T03:27:53.334Z,46.40
2023-01-27T03:28:25.007Z,46.40
2023-01-27T03:29:14.847Z,46.10
2023-01-27T03:30:02.920Z,46.03
2023-01-27T03:30:34.607Z,46.63
2023-01-27T03:31:22.379Z,45.33
2023-01-27T03:31:54.181Z,45.63
2023-01-27T03:32:28.643Z,46.70
2023-01-27T03:33:00.439Z,46.83
2023-01-27T03:33:32.249Z,45.20
2023-01-27T03:34:03.917Z,45.67
2023-01-27T03:34:35.589Z,46.27
2023-01-27T03:35:07.756Z,45.37
2023-01-27T03:35:39.813Z,46.97
2023-01-27T03:36:30.476Z,48.37
2023-01-27T03:37:20.577Z,45.53
2023-01-27T03:38:11.176Z,45.53
2023-01-27T03:39:03.273Z,46.93
2023-01-27T03:39:53.411Z,45.23
2023-01-27T03:40:44.147Z,45.37
2023-01-27T03:41:34.749Z,46.37
2023-01-27T03:42:24.664Z,45.97
2023-01-27T03:43:14.709Z,47.50
2023-01-27T03:44:05.013Z,46.03
2023-01-27T03:44:55.094Z,45.07
2023-01-27T03:45:45.567Z,44.73
2023-01-27T03:46:20.154Z,45.60
2023-01-27T03:46:51.859Z,45.50
2023-01-27T03:47:24.133Z,45.47
2023-01-27T03:47:58.335Z,44.63
2023-01-27T03:48:36.545Z,45.10
2023-01-27T03:49:08.205Z,44.87
2023-01-27T03:49:41.928Z,44.33
2023-01-27T03:50:16.221Z,45.43
2023-01-27T03:50:53.256Z,45.63
2023-01-27T03:51:26.628Z,45.93
2023-01-27T03:52:01.340Z,45.87
2023-01-27T03:52:33.135Z,46.67
2023-01-27T03:53:05.789Z,46.37
2023-01-27T03:53:37.835Z,46.03
2023-01-27T03:54:09.930Z,48.60
2023-01-27T03:54:43.917Z,46.17
2023-01-27T03:55:15.804Z,46.57
2023-01-27T03:55:47.949Z,46.80
2023-01-27T03:56:21.371Z,45.53
2023-01-27T03:56:53.005Z,47.40
2023-01-27T03:57:24.632Z,49.30
2023-01-27T03:57:57.067Z,48.00
2023-01-27T03:58:31.646Z,48.57
2023-01-27T03:59:04.088Z,49.30
2023-01-27T03:59:36.023Z,48.67
2023-01-27T04:00:09.385Z,49.57
2023-01-27T04:00:48.815Z,50.17
2023-01-27T04:01:23.754Z,49.73
2023-01-27T04:02:17.238Z,48.87
2023-01-27T04:03:07.471Z,48.73
2023-01-27T04:03:58.252Z,47.97
2023-01-27T04:04:49.616Z,45.50
2023-01-27T04:05:39.443Z,47.37
2023-01-27T04:06:33.393Z,47.73
2023-01-27T04:07:05.048Z,47.10
2023-01-27T04:07:39.271Z,47.90
2023-01-27T04:08:10.985Z,48.80
2023-01-27T04:08:43.664Z,50.93
2023-01-27T04:09:36.340Z,53.63
2023-01-27T04:10:08.607Z,55.13
2023-01-27T04:10:40.272Z,57.10
2023-01-27T04:11:31.832Z,57.13
2023-01-27T04:12:05.912Z,54.73
2023-01-27T04:12:37.580Z,57.10
2023-01-27T04:13:09.269Z,55.40
2023-01-27T04:13:40.937Z,55.80
2023-01-27T04:14:12.948Z,57.00
2023-01-27T04:14:44.696Z,58.87
2023-01-27T04:15:17.473Z,61.43
2023-01-27T04:15:54.034Z,63.87
2023-01-27T04:16:28.965Z,68.50
2023-01-27T04:17:04.536Z,72.97
2023-01-27T04:17:39.020Z,76.57
2023-01-27T04:18:10.754Z,73.90
2023-01-27T04:18:42.459Z,71.70
2023-01-27T04:19:16.023Z,66.03
2023-01-27T04:19:47.771Z,59.07
2023-01-27T04:20:20.711Z,58.77
2023-01-27T04:20:52.355Z,56.63
2023-01-27T04:21:25.620Z,52.63
2023-01-27T04:21:59.581Z,50.77
2023-01-27T04:22:34.332Z,51.27
2023-01-27T04:23:05.969Z,50.50
2023-01-27T04:23:37.624Z,49.83
2023-01-27T04:24:17.472Z,48.33
2023-01-27T04:24:50.231Z,47.17
2023-01-27T04:25:21.890Z,49.30
2023-01-27T04:25:54.372Z,49.13
2023-01-27T04:26:33.037Z,47.37
2023-01-27T04:27:11.126Z,48.40
2023-01-27T04:27:47.718Z,46.40
2023-01-27T04:28:37.327Z,46.40
2023-01-27T04:29:13.778Z,47.30
2023-01-27T04:29:45.420Z,46.53
2023-01-27T04:30:17.341Z,46.63
2023-01-27T04:30:54.176Z,45.00
2023-01-27T04:31:26.254Z,46.90
2023-01-27T04:31:58.502Z,45.03
2023-01-27T04:32:30.767Z,44.33
2023-01-27T04:33:04.739Z,47.00
2023-01-27T04:33:36.584Z,45.70
2023-01-27T04:34:10.320Z,47.20
2023-01-27T04:34:42.680Z,47.60
2023-01-27T04:35:14.713Z,46.90
2023-01-27T04:35:46.629Z,47.67
2023-01-27T04:36:18.621Z,48.07
2023-01-27T04:36:50.604Z,46.67
2023-01-27T04:37:22.239Z,47.00
2023-01-27T04:37:54.099Z,46.90
2023-01-27T04:38:25.733Z,48.20
2023-01-27T04:38:57.374Z,48.50
2023-01-27T04:39:29.632Z,46.73
2023-01-27T04:40:01.277Z,47.90
2023-01-27T04:40:32.926Z,48.33
2023-01-27T04:41:06.968Z,46.43
2023-01-27T04:41:38.643Z,46.90
2023-01-27T04:42:17.484Z,46.17
2023-01-27T04:42:49.283Z,46.00
2023-01-27T04:43:20.986Z,45.63
2023-01-27T04:43:52.773Z,45.30
2023-01-27T04:44:25.059Z,45.37
2023-01-27T04:44:56.712Z,45.60
2023-01-27T04:45:28.522Z,44.70
2023-01-27T04:46:00.231Z,44.43
2023-01-27T04:46:32.369Z,44.33
2023-01-27T04:47:04.030Z,44.03
2023-01-27T04:47:37.714Z,43.97
2023-01-27T04:48:09.439Z,43.23
2023-01-27T04:48:41.471Z,43.60
2023-01-27T04:49:13.211Z,43.00
2023-01-27T04:49:44.857Z,42.87
2023-01-27T04:50:16.796Z,42.10
2023-01-27T04:50:50.831Z,43.07
2023-01-27T04:51:23.053Z,41.83
2023-01-27T04:51:55.699Z,41.63
2023-01-27T04:52:30.842Z,42.03
2023-01-27T04:53:09.679Z,41.80
2023-01-27T04:53:41.370Z,43.43
2023-01-27T04:54:15.937Z,43.40
2023-01-27T04:54:47.612Z,42.03
2023-01-27T04:55:19.233Z,43.53
2023-01-27T04:55:50.929Z,45.27
2023-01-27T04:56:53.798Z,46.83
2023-01-27T04:57:26.976Z,48.37
2023-01-27T04:58:02.377Z,49.40
2023-01-27T04:58:35.859Z,47.47
2023-01-27T04:59:12.279Z,47.60
2023-01-27T04:59:43.927Z,47.00
2023-01-27T05:00:18.294Z,45.97
2023-01-27T05:00:49.941Z,44.30
2023-01-27T05:01:24.031Z,45.23
2023-01-27T05:02:05.386Z,43.57
2023-01-27T05:02:37.132Z,41.83
2023-01-27T05:03:10.287Z,42.40
2023-01-27T05:03:41.993Z,41.50
2023-01-27T05:04:14.777Z,42.33
2023-01-27T05:04:47.551Z,43.67
2023-01-27T05:05:19.191Z,44.60
2023-01-27T05:05:51.708Z,42.73
2023-01-27T05:06:24.173Z,45.03
2023-01-27T05:06:58.129Z,45.47
2023-01-27T05:07:32.274Z,46.03
2023-01-27T05:08:09.771Z,43.70
2023-01-27T05:08:41.532Z,44.20
2023-01-27T05:09:13.218Z,43.63
2023-01-27T05:09:44.962Z,44.03
2023-01-27T05:10:19.964Z,43.90
2023-01-27T05:10:52.949Z,44.47
2023-01-27T05:11:24.615Z,43.13
2023-01-27T05:11:56.287Z,43.50
2023-01-27T05:12:27.890Z,43.37
2023-01-27T05:13:01.306Z,43.37
2023-01-27T05:13:33.549Z,43.17
2023-01-27T05:14:07.777Z,41.53
2023-01-27T05:14:39.430Z,42.53
2023-01-27T05:15:13.873Z,43.57
2023-01-27T05:15:53.188Z,42.10
2023-01-27T05:16:25.606Z,42.07
2023-01-27T05:16:58.536Z,43.83
2023-01-27T05:17:36.096Z,42.03
2023-01-27T05:18:07.821Z,42.03
2023-01-27T05:18:41.237Z,42.50
2023-01-27T05:19:12.990Z,42.53
2023-01-27T05:19:44.642Z,41.57
2023-01-27T05:20:17.851Z,40.97
2023-01-27T05:20:51.428Z,42.00
2023-01-27T05:21:28.446Z,43.23
2023-01-27T05:22:00.109Z,44.80
2023-01-27T05:22:31.740Z,43.47
2023-01-27T05:23:24.002Z,42.53
2023-01-27T05:23:55.761Z,42.33
2023-01-27T05:24:27.446Z,43.50
2023-01-27T05:25:01.202Z,43.03
2023-01-27T05:25:32.972Z,44.80
2023-01-27T05:26:04.762Z,45.67
2023-01-27T05:26:38.668Z,47.80
2023-01-27T05:27:10.332Z,49.93
2023-01-27T05:27:42.018Z,50.93
2023-01-27T05:28:15.974Z,51.13
2023-01-27T05:28:51.773Z,49.20
2023-01-27T05:29:23.763Z,51.93
2023-01-27T05:29:57.547Z,51.17
2023-01-27T05:30:29.186Z,50.77
2023-01-27T05:31:10.510Z,50.33
2023-01-27T05:31:42.385Z,47.50
2023-01-27T05:32:14.070Z,46.77
2023-01-27T05:32:47.060Z,47.20
2023-01-27T05:33:18.708Z,46.97
2023-01-27T05:33:52.777Z,45.80
2023-01-27T05:34:24.481Z,44.40
2023-01-27T05:34:58.117Z,44.90
2023-01-27T05:35:36.145Z,43.67
2023-01-27T05:36:09.826Z,41.27
2023-01-27T05:36:44.111Z,41.60
2023-01-27T05:37:15.746Z,41.77
2023-01-27T05:37:47.408Z,42.37
2023-01-27T05:38:19.040Z,41.23
2023-01-27T05:38:52.661Z,40.97
2023-01-27T05:39:24.334Z,40.83
2023-01-27T05:39:56.239Z,41.50
2023-01-27T05:40:35.433Z,41.30
2023-01-27T05:41:08.724Z,42.63
2023-01-27T05:41:40.382Z,43.07
2023-01-27T05:42:12.044Z,41.13
2023-01-27T05:42:43.653Z,40.87
2023-01-27T05:43:15.328Z,39.47
2023-01-27T05:43:51.588Z,40.13
2023-01-27T05:44:23.242Z,40.73
2023-01-27T05:45:03.562Z,40.37
2023-01-27T05:45:36.204Z,41.80
2023-01-27T05:46:11.814Z,41.13
2023-01-27T05:46:43.567Z,40.87
2023-01-27T05:47:15.212Z,39.77
2023-01-27T05:47:51.509Z,40.23
2023-01-27T05:48:23.240Z,40.00
2023-01-27T05:48:57.095Z,39.30
2023-01-27T05:49:30.718Z,39.80
2023-01-27T05:50:02.334Z,40.27
2023-01-27T05:50:33.945Z,39.90
2023-01-27T05:51:06.654Z,39.30
2023-01-27T05:51:40.434Z,40.40
2023-01-27T05:52:12.046Z,40.10
2023-01-27T05:52:43.738Z,39.60
2023-01-27T05:53:15.401Z,40.40
2023-01-27T05:53:50.172Z,42.27
2023-01-27T05:54:21.869Z,40.93
2023-01-27T05:54:53.520Z,40.10
2023-01-27T05:55:27.509Z,39.70
2023-01-27T05:55:59.730Z,41.03
2023-01-27T05:56:32.065Z,41.97
2023-01-27T05:57:03.741Z,41.27
2023-01-27T05:57:42.768Z,41.90
2023-01-27T05:58:22.789Z,43.70
2023-01-27T05:58:56.369Z,42.17
2023-01-27T05:59:28.058Z,41.63
2023-01-27T05:59:59.677Z,42.73
2023-01-27T06:00:31.587Z,41.57
2023-01-27T06:01:14.074Z,41.40
2023-01-27T06:01:45.802Z,41.47
2023-01-27T06:02:17.548Z,43.20
2023-01-27T06:02:49.240Z,44.13
2023-01-27T06:03:21.518Z,43.67
2023-01-27T06:03:53.474Z,42.70
2023-01-27T06:04:26.705Z,44.20
2023-01-27T06:04:58.349Z,42.77
2023-01-27T06:05:30.141Z,43.83
2023-01-27T06:06:01.941Z,44.70
2023-01-27T06:06:37.554Z,43.40
2023-01-27T06:07:09.187Z,43.07
2023-01-27T06:07:40.846Z,41.70
2023-01-27T06:08:12.505Z,41.57
2023-01-27T06:08:45.645Z,41.37
2023-01-27T06:09:17.382Z,41.30
2023-01-27T06:09:49.136Z,40.97
2023-01-27T06:10:20.779Z,40.77
2023-01-27T06:10:53.718Z,41.87
2023-01-27T06:11:26.147Z,41.60
2023-01-27T06:12:03.041Z,41.17
2023-01-27T06:12:38.360Z,38.90
2023-01-27T06:13:10.049Z,46.33
2023-01-27T06:13:44.155Z,47.20
2023-01-27T06:14:16.011Z,45.73
2023-01-27T06:14:47.697Z,46.27
2023-01-27T06:15:19.340Z,46.90
2023-01-27T06:15:51.556Z,45.87
2023-01-27T06:16:23.892Z,44.63
2023-01-27T06:16:55.615Z,44.87
2023-01-27T06:17:27.260Z,44.37
2023-01-27T06:17:58.909Z,43.57
2023-01-27T06:18:30.693Z,42.97
2023-01-27T06:19:02.528Z,41.17
2023-01-27T06:19:34.160Z,40.43
2023-01-27T06:20:08.991Z,39.77
2023-01-27T06:20:41.654Z,39.97
2023-01-27T06:21:17.683Z,39.63
2023-01-27T06:21:49.315Z,38.27
2023-01-27T06:22:20.965Z,38.57
2023-01-27T06:22:52.610Z,40.03
2023-01-27T06:23:24.995Z,39.77
2023-01-27T06:23:58.199Z,39.30
2023-01-27T06:24:32.096Z,38.57
2023-01-27T06:25:03.895Z,38.97
2023-01-27T06:25:40.297Z,40.17
2023-01-27T06:26:18.325Z,41.37
2023-01-27T06:26:49.981Z,42.50
2023-01-27T06:27:21.639Z,42.33
2023-01-27T06:27:57.525Z,42.20
2023-01-27T06:28:30.076Z,42.07
2023-01-27T06:29:02.198Z,41.13
2023-01-27T06:29:33.865Z,42.40
2023-01-27T06:30:06.081Z,41.70
2023-01-27T06:30:39.748Z,41.50
2023-01-27T06:31:14.892Z,42.37
2023-01-27T06:31:46.654Z,41.83
2023-01-27T06:32:18.369Z,41.33
2023-01-27T06:32:50.035Z,40.37
2023-01-27T06:33:21.648Z,38.70
2023-01-27T06:33:53.502Z,40.30
2023-01-27T06:34:25.611Z,42.93
2023-01-27T06:34:57.255Z,43.93
2023-01-27T06:35:29.570Z,41.77
2023-01-27T06:36:08.472Z,42.20
2023-01-27T06:36:40.087Z,41.13
2023-01-27T06:37:11.731Z,41.00
2023-01-27T06:37:43.477Z,41.40
2023-01-27T06:38:17.864Z,41.37
2023-01-27T06:38:50.623Z,41.00
2023-01-27T06:39:22.349Z,41.97
2023-01-27T06:39:53.955Z,42.10
2023-01-27T06:40:27.140Z,37.53
2023-01-27T06:41:02.025Z,35.87
2023-01-27T06:41:33.732Z,41.93
2023-01-27T06:42:07.455Z,42.57
2023-01-27T06:42:43.643Z,41.70
2023-01-27T06:43:15.283Z,37.67
2023-01-27T06:43:46.932Z,37.03
2023-01-27T06:44:18.560Z,38.70
2023-01-27T06:44:50.228Z,38.50
2023-01-27T06:45:22.332Z,39.03
2023-01-27T06:45:54.255Z,38.93
2023-01-27T06:46:25.940Z,37.23
2023-01-27T06:47:00.582Z,41.73
2023-01-27T06:47:32.356Z,45.03
2023-01-27T06:48:04.230Z,47.57
2023-01-27T06:48:40.085Z,47.17
2023-01-27T06:49:14.175Z,48.70
2023-01-27T06:49:45.808Z,48.73
2023-01-27T06:50:17.488Z,50.57
2023-01-27T06:50:49.354Z,50.30
2023-01-27T06:51:20.971Z,49.13
2023-01-27T06:51:52.610Z,48.53
2023-01-27T06:52:26.614Z,46.17
2023-01-27T06:53:05.848Z,45.17
2023-01-27T06:53:47.736Z,43.43
2023-01-27T06:54:19.451Z,44.27
2023-01-27T06:54:51.217Z,44.77
2023-01-27T06:55:24.279Z,47.03
2023-01-27T06:56:00.522Z,49.13
2023-01-27T06:56:35.073Z,49.00
2023-01-27T06:57:11.667Z,49.27
2023-01-27T06:57:47.190Z,51.57
2023-01-27T06:58:18.845Z,51.87
2023-01-27T06:58:54.766Z,54.03
2023-01-27T06:59:26.490Z,56.83
2023-01-27T06:59:58.171Z,55.07
2023-01-27T07:00:30.427Z,52.40
2023-01-27T07:01:05.309Z,51.63
2023-01-27T07:01:37.244Z,50.23
2023-01-27T07:02:12.294Z,54.17
2023-01-27T07:02:46.473Z,55.27
2023-01-27T07:03:18.389Z,52.53
2023-01-27T07:03:50.033Z,48.93
2023-01-27T07:04:25.143Z,46.33
2023-01-27T07:04:56.828Z,46.47
2023-01-27T07:05:28.517Z,46.07
2023-01-27T07:06:00.198Z,46.70
2023-01-27T07:06:31.895Z,46.50
2023-01-27T07:07:05.282Z,46.73
2023-01-27T07:07:37.644Z,46.07
2023-01-27T07:08:49.706Z,44.90
2023-01-27T07:09:23.328Z,48.13
2023-01-27T07:09:54.952Z,47.47
2023-01-27T07:10:27.739Z,45.20
2023-01-27T07:11:02.502Z,48.30
2023-01-27T07:11:34.150Z,47.40
2023-01-27T07:12:05.909Z,44.93
2023-01-27T07:12:40.645Z,45.53
2023-01-27T07:13:14.116Z,42.53
2023-01-27T07:13:45.742Z,40.03
2023-01-27T07:14:19.915Z,41.47
2023-01-27T07:14:51.548Z,43.10
2023-01-27T07:15:23.188Z,45.00
2023-01-27T07:15:56.368Z,45.13
2023-01-27T07:16:28.124Z,44.10
2023-01-27T07:17:01.300Z,46.70
2023-01-27T07:17:33.371Z,41.53
2023-01-27T07:18:05.415Z,37.93
2023-01-27T07:18:37.081Z,44.40
2023-01-27T07:19:11.078Z,49.27
2023-01-27T07:19:46.887Z,47.80
2023-01-27T07:20:18.564Z,48.73
2023-01-27T07:20:50.202Z,47.73
2023-01-27T07:21:21.899Z,46.00
2023-01-27T07:21:53.542Z,47.60
2023-01-27T07:22:27.115Z,47.30
2023-01-27T07:23:00.347Z,44.57
2023-01-27T07:23:33.152Z,44.20
2023-01-27T07:24:05.768Z,45.87
2023-01-27T07:24:48.663Z,45.30
2023-01-27T07:25:20.305Z,43.03
2023-01-27T07:25:54.423Z,42.07
2023-01-27T07:26:26.104Z,43.27